createdAt,value
2018-09-26T00:07:24.536Z,50.3
2018-09-26T00:17:38.667Z,50.2
2018-09-26T00:27:52.710Z,50.1
2018-09-26T00:38:07.689Z,50.2
2018-09-26T00:49:07.553Z,50.6
2018-09-26T00:59:21.772Z,51.5
2018-09-26T01:09:36.405Z,51.8
2018-09-26T01:20:21.696Z,52.4
2018-09-26T01:31:06.910Z,52.1
2018-09-26T01:41:21.085Z,52.1
2018-09-26T01:52:06.740Z,52.1
2018-09-26T02:02:18.866Z,52.1
2018-09-26T02:13:03.672Z,52.2
2018-09-26T02:23:48.490Z,52.4
2018-09-26T02:34:34.965Z,52.1
2018-09-26T02:44:49.404Z,52.0
2018-09-26T02:55:34.289Z,52.2
2018-09-26T03:06:20.358Z,52.2
2018-09-26T03:16:34.215Z,52.4
2018-09-26T03:27:00.173Z,52.4
2018-09-26T03:37:12.863Z,52.4
2018-09-26T03:47:59.356Z,52.3
2018-09-26T03:58:13.655Z,52.4
2018-09-26T04:08:28.593Z,52.2
2018-09-26T04:22:04.702Z,52.3
2018-09-26T04:32:54.213Z,52.7
2018-09-26T04:43:05.565Z,53.3
2018-09-26T04:53:19.589Z,53.6
2018-09-26T05:03:33.875Z,53.5
2018-09-26T05:13:49.596Z,54.1
2018-09-26T05:24:03.535Z,53.8
2018-09-26T05:34:17.815Z,54.9
2018-09-26T05:44:32.169Z,54.9
2018-09-26T05:55:16.836Z,55.9
2018-09-26T06:05:31.275Z,56.2
2018-09-26T06:15:43.713Z,56.3
2018-09-26T06:25:58.174Z,56.2
2018-09-26T06:36:42.676Z,56.2
2018-09-26T06:46:57.011Z,56.1
2018-09-26T06:57:41.872Z,56.5
2018-09-26T07:07:55.975Z,56.1
2018-09-26T07:18:09.911Z,56.0
2018-09-26T07:28:24.344Z,56.2
2018-09-26T07:38:38.532Z,56.5
2018-09-26T07:48:50.101Z,55.4
2018-09-26T07:59:04.094Z,54.5
2018-09-26T08:09:49.833Z,53.6
2018-09-26T08:20:04.107Z,53.0
2018-09-26T08:30:18.023Z,52.1
2018-09-26T08:40:32.669Z,50.0
2018-09-26T08:50:46.917Z,47.4
2018-09-26T09:01:00.935Z,46.8
2018-09-26T09:11:15.123Z,46.0
2018-09-26T09:21:29.619Z,44.9
2018-09-26T09:31:41.538Z,43.5
2018-09-26T09:42:33.317Z,43.0
2018-09-26T09:54:56.296Z,41.7
2018-09-26T10:05:10.499Z,41.8
2018-09-26T10:15:24.943Z,41.2
2018-09-26T10:26:14.380Z,39.1
2018-09-26T10:36:29.044Z,39.0
2018-09-26T10:46:42.962Z,38.5
2018-09-26T10:56:55.162Z,38.6
2018-09-26T11:07:09.483Z,36.1
2018-09-26T11:17:23.494Z,34.0
2018-09-26T11:27:38.354Z,32.6
2018-09-26T11:37:52.530Z,32.5
2018-09-26T11:48:07.247Z,31.2
2018-09-26T12:03:56.336Z,30.8
2018-09-26T12:14:40.992Z,29.9
2018-09-26T12:24:55.445Z,29.1
2018-09-26T12:35:45.046Z,29.2
2018-09-26T12:46:31.144Z,29.5
2018-09-26T12:57:23.506Z,29.6
2018-09-26T13:08:09.216Z,30.8
2018-09-26T13:20:47.771Z,32.7
2018-09-26T14:28:02.120Z,32.0
2018-09-26T14:40:58.668Z,32.0
2018-09-26T15:10:15.833Z,30.7
2018-09-26T15:29:52.351Z,30.4
2018-09-26T15:57:13.543Z,32.1
2018-09-26T16:19:07.207Z,33.7
2018-09-26T16:30:05.113Z,34.6
2018-09-26T16:52:46.659Z,36.0
2018-09-26T17:04:29.174Z,36.5
2018-09-26T17:16:26.089Z,37.5
2018-09-26T17:28:29.485Z,38.0
2018-09-26T17:52:12.172Z,39.1
2018-09-26T18:03:49.156Z,39.3
2018-09-26T18:15:22.536Z,39.6
2018-09-26T18:27:06.364Z,40.1
2018-09-26T18:38:58.920Z,40.5
2018-09-26T19:02:43.402Z,41.0
2018-09-26T19:15:44.355Z,41.5
2018-09-26T19:27:52.279Z,41.4
2018-09-26T19:39:51.888Z,41.6
2018-09-26T20:39:28.789Z,43.2
